Time;durP1;ratioP1;P1;durP2;ratioP2;P2;SDS_P1;SDS_P2;PMS_P1;PMS_P2;Temp;Humidity;BMP_temperature;BMP_pressure;BME280_temperature;BME280_humidity;BME280_pressure;Samples;Min_cycle;Max_cycle;Signal;HPM_P1;HPM_P2
2022/05/23 00:00:12;;;;;;;6.82;4.10;;;16.90;93.50;;;;;;4999672;28;20092;-51
2022/05/23 00:02:38;;;;;;;18.55;11.57;;;16.90;93.50;;;;;;5003514;28;20022;-52
2022/05/23 00:05:05;;;;;;;35.78;20.95;;;16.90;93.60;;;;;;4986633;28;20524;-55
2022/05/23 00:07:34;;;;;;;61.72;37.63;;;16.90;93.50;;;;;;5002420;28;20066;-55
2022/05/23 00:10:00;;;;;;;32.67;20.10;;;16.80;93.90;;;;;;5007228;28;20034;-56
2022/05/23 00:12:27;;;;;;;11.82;8.93;;;16.80;94.10;;;;;;4995575;28;20141;-55
2022/05/23 00:14:53;;;;;;;9.27;7.03;;;16.70;94.30;;;;;;5013401;28;20018;-52
2022/05/23 00:17:19;;;;;;;9.50;6.03;;;16.70;94.60;;;;;;5013475;28;20034;-54
2022/05/23 00:19:46;;;;;;;6.53;4.93;;;16.70;94.90;;;;;;5013754;28;20101;-52
2022/05/23 00:22:13;;;;;;;6.45;4.82;;;16.60;94.90;;;;;;4995504;28;20030;-56
2022/05/23 00:24:41;;;;;;;6.90;4.93;;;16.60;95.20;;;;;;5012944;28;20109;-50
2022/05/23 00:27:08;;;;;;;7.22;4.90;;;16.50;95.10;;;;;;5012444;28;20038;-50
2022/05/23 00:29:34;;;;;;;10.90;8.27;;;16.50;95.20;;;;;;5013015;28;20073;-52
2022/05/23 00:37:28;;;;;;;10.80;8.25;;;16.40;95.10;;;;;;5006955;28;20026;-55
2022/05/23 00:39:54;;;;;;;11.63;9.48;;;16.40;95.20;;;;;;5013589;28;20030;-53
2022/05/23 00:45:10;;;;;;;12.93;8.73;;;16.40;95.20;;;;;;5013330;28;20030;-51
2022/05/23 00:47:36;;;;;;;10.65;8.73;;;16.30;95.20;;;;;;5012309;28;20045;-54
2022/05/23 00:50:03;;;;;;;8.27;5.72;;;16.30;95.30;;;;;;5012726;28;20551;-52
2022/05/23 00:52:37;;;;;;;7.28;6.40;;;16.30;94.80;;;;;;5012711;28;20034;-53
2022/05/23 00:55:10;;;;;;;9.32;6.80;;;16.20;94.80;;;;;;5012913;28;20018;-54
2022/05/23 00:57:41;;;;;;;9.63;7.38;;;16.20;95.20;;;;;;5012038;28;20030;-52
2022/05/23 01:00:08;;;;;;;10.32;6.72;;;16.20;95.10;;;;;;5012874;28;20018;-54
2022/05/23 01:02:36;;;;;;;9.00;6.45;;;16.20;94.60;;;;;;5012442;28;20176;-51
2022/05/23 01:05:03;;;;;;;8.82;7.85;;;16.10;94.30;;;;;;5012596;28;20026;-48
2022/05/23 01:07:28;;;;;;;8.38;6.70;;;16.10;94.20;;;;;;5012144;28;20077;-49
2022/05/23 01:09:54;;;;;;;8.00;6.68;;;16.10;94.10;;;;;;5012223;28;20087;-52
2022/05/23 01:12:20;;;;;;;11.02;7.93;;;16.10;94.10;;;;;;5012028;28;20055;-47
2022/05/23 01:14:47;;;;;;;7.13;5.95;;;16.10;94.00;;;;;;5012150;28;20037;-50
2022/05/23 01:17:13;;;;;;;9.73;6.80;;;16.10;94.10;;;;;;5011585;28;20060;-56
2022/05/23 01:19:38;;;;;;;8.45;6.40;;;16.20;94.20;;;;;;5010951;28;20037;-49
2022/05/23 01:22:33;;;;;;;6.57;5.45;;;16.10;94.50;;;;;;5012427;28;20088;-52
2022/05/23 01:25:04;;;;;;;7.95;6.57;;;16.10;94.80;;;;;;5011948;28;20030;-49
2022/05/23 01:27:31;;;;;;;6.95;5.82;;;16.10;95.10;;;;;;5011131;28;20116;-48
2022/05/23 01:29:57;;;;;;;9.18;8.07;;;16.10;95.30;;;;;;5011327;28;20501;-53
2022/05/23 01:32:23;;;;;;;9.27;7.65;;;16.10;95.30;;;;;;5012280;28;20041;-57
2022/05/23 01:34:48;;;;;;;11.90;9.05;;;16.10;95.40;;;;;;5012669;28;20077;-48
2022/05/23 01:37:14;;;;;;;11.90;9.65;;;16.10;95.40;;;;;;5011032;28;20065;-53
2022/05/23 01:39:40;;;;;;;8.63;7.15;;;16.10;95.30;;;;;;5011582;28;20060;-52
2022/05/23 01:42:06;;;;;;;8.15;6.32;;;16.00;95.50;;;;;;5011391;28;20037;-55
2022/05/23 01:44:32;;;;;;;7.18;6.30;;;16.00;95.20;;;;;;5011839;28;20076;-55
2022/05/23 01:46:58;;;;;;;8.95;6.07;;;16.00;94.80;;;;;;5011559;28;20072;-56
2022/05/23 01:49:24;;;;;;;7.18;6.22;;;15.90;94.70;;;;;;5011805;28;20542;-56
2022/05/23 01:51:49;;;;;;;8.30;6.05;;;15.90;94.70;;;;;;5011550;28;20042;-53
2022/05/23 01:54:15;;;;;;;7.15;6.10;;;16.00;94.50;;;;;;5014662;28;20386;-50
2022/05/23 01:56:41;;;;;;;7.38;5.35;;;15.90;94.30;;;;;;5015128;28;20026;-50
2022/05/23 02:01:50;;;;;;;6.78;5.60;;;15.80;94.50;;;;;;5016045;28;20034;-49
2022/05/23 02:04:16;;;;;;;8.38;5.75;;;15.80;94.50;;;;;;5015579;28;20405;-56
2022/05/23 02:06:42;;;;;;;6.97;4.95;;;15.80;94.70;;;;;;5014499;28;20073;-54
2022/05/23 02:09:07;;;;;;;8.63;5.97;;;15.80;95.10;;;;;;5016039;28;20137;-49
2022/05/23 02:11:33;;;;;;;7.65;5.28;;;15.70;95.40;;;;;;5016156;28;20080;-53
2022/05/23 02:13:58;;;;;;;7.28;5.97;;;15.70;95.60;;;;;;5014422;28;20042;-55
2022/05/23 02:16:24;;;;;;;5.95;4.90;;;15.70;95.70;;;;;;5015391;28;20038;-50
2022/05/23 02:18:50;;;;;;;5.88;4.85;;;15.60;95.90;;;;;;5015614;28;20042;-54
2022/05/23 02:21:16;;;;;;;7.03;4.85;;;15.60;96.00;;;;;;5015444;28;20444;-51
2022/05/23 02:23:42;;;;;;;6.22;4.90;;;15.50;96.10;;;;;;5016487;28;20034;-49
2022/05/23 02:26:08;;;;;;;8.75;5.10;;;15.30;96.40;;;;;;5014872;28;20416;-52
2022/05/23 02:28:33;;;;;;;5.28;4.50;;;15.30;96.80;;;;;;5015863;28;20030;-51
2022/05/23 02:30:59;;;;;;;6.90;5.07;;;15.20;96.80;;;;;;5015693;28;20037;-51
2022/05/23 02:33:25;;;;;;;7.57;5.00;;;15.20;96.80;;;;;;5016004;28;20038;-58
2022/05/23 02:35:50;;;;;;;8.23;4.97;;;15.20;97.00;;;;;;5008463;28;20022;-49
2022/05/23 02:38:16;;;;;;;7.63;4.97;;;15.10;96.70;;;;;;5015883;28;20085;-48
2022/05/23 02:40:41;;;;;;;7.30;4.70;;;15.10;97.00;;;;;;5015376;28;20401;-57
2022/05/23 02:43:07;;;;;;;7.55;5.85;;;15.10;97.20;;;;;;5016021;28;20124;-47
2022/05/23 02:45:32;;;;;;;8.38;6.28;;;15.10;97.30;;;;;;5015341;28;20084;-55
2022/05/23 02:47:58;;;;;;;10.82;6.57;;;15.10;97.30;;;;;;5014865;28;20468;-48
2022/05/23 02:50:24;;;;;;;7.00;6.00;;;15.10;97.40;;;;;;5015333;28;20030;-53
2022/05/23 02:52:50;;;;;;;9.25;6.10;;;15.00;97.20;;;;;;5015265;28;20032;-56
2022/05/23 02:55:15;;;;;;;7.82;5.97;;;14.90;97.80;;;;;;5015477;28;20176;-51
2022/05/23 02:57:41;;;;;;;7.25;5.82;;;14.90;98.00;;;;;;5014272;28;20038;-51
2022/05/23 03:00:08;;;;;;;6.18;5.15;;;14.90;98.00;;;;;;5014424;28;20030;-51
2022/05/23 03:05:18;;;;;;;6.78;5.75;;;14.90;97.80;;;;;;5013435;28;20033;-55
2022/05/23 03:07:45;;;;;;;6.43;5.78;;;14.90;97.80;;;;;;5014391;28;20413;-54
2022/05/23 03:10:12;;;;;;;8.05;6.40;;;14.90;97.90;;;;;;5014885;28;20038;-54
2022/05/23 03:12:37;;;;;;;10.07;7.10;;;14.80;97.60;;;;;;4997463;28;20034;-50
2022/05/23 03:15:05;;;;;;;11.73;9.02;;;14.80;97.40;;;;;;5014520;28;20389;-52
2022/05/23 03:17:31;;;;;;;11.85;8.30;;;14.80;97.20;;;;;;5013855;28;20061;-50
2022/05/23 03:19:57;;;;;;;11.43;6.85;;;14.80;97.10;;;;;;5015196;28;20037;-50
2022/05/23 03:27:51;;;;;;;9.30;5.07;;;14.80;96.50;;;;;;4998989;28;20125;-51
2022/05/23 03:30:18;;;;;;;6.88;5.25;;;14.80;96.80;;;;;;5013946;28;20076;-57
2022/05/23 03:32:43;;;;;;;5.90;4.90;;;14.90;96.80;;;;;;5014184;28;20061;-53
2022/05/23 03:35:09;;;;;;;7.57;4.90;;;14.80;96.70;;;;;;4994373;28;20485;-53
2022/05/23 03:37:35;;;;;;;8.90;5.85;;;14.90;96.70;;;;;;5009181;28;20056;-56
2022/05/23 03:40:06;;;;;;;7.40;5.53;;;14.90;96.80;;;;;;5013537;28;20073;-51
2022/05/23 03:42:32;;;;;;;10.02;5.57;;;14.90;97.00;;;;;;5014283;28;20464;-55
2022/05/23 03:44:58;;;;;;;7.53;5.40;;;15.00;97.00;;;;;;5013909;28;20036;-50
2022/05/23 03:47:23;;;;;;;10.70;5.25;;;15.10;96.80;;;;;;5013694;28;20029;-56
2022/05/23 03:49:49;;;;;;;7.80;4.78;;;15.10;96.40;;;;;;5013853;28;20030;-56
2022/05/23 03:52:14;;;;;;;6.68;5.18;;;15.10;96.30;;;;;;5013887;28;20092;-50
2022/05/23 03:54:40;;;;;;;7.25;6.22;;;15.10;96.00;;;;;;5013924;28;20042;-52
2022/05/23 03:57:06;;;;;;;10.20;7.18;;;15.20;95.90;;;;;;5013350;28;20436;-55
2022/05/23 03:59:32;;;;;;;11.07;7.88;;;15.10;95.50;;;;;;5013820;28;20014;-56
2022/05/23 04:01:58;;;;;;;6.97;5.75;;;15.20;95.20;;;;;;5013309;28;20619;-53
2022/05/23 04:04:25;;;;;;;7.57;5.72;;;15.20;94.80;;;;;;5013185;28;20128;-56
2022/05/23 04:06:51;;;;;;;6.50;5.05;;;15.30;94.50;;;;;;5012600;28;20068;-53
2022/05/23 04:09:17;;;;;;;9.35;7.00;;;15.30;94.20;;;;;;5013150;28;20045;-50
2022/05/23 04:11:43;;;;;;;16.50;10.23;;;15.40;94.10;;;;;;4995295;28;20120;-52
2022/05/23 04:14:08;;;;;;;7.47;5.63;;;15.40;94.00;;;;;;5013513;28;20029;-53
2022/05/23 04:16:34;;;;;;;8.52;5.47;;;15.40;93.80;;;;;;5012360;28;20048;-50
2022/05/23 04:19:05;;;;;;;7.93;6.18;;;15.40;93.80;;;;;;5013159;28;20052;-56
2022/05/23 04:21:31;;;;;;;8.70;6.13;;;15.40;93.80;;;;;;5012587;28;20597;-54
2022/05/23 04:23:56;;;;;;;7.43;5.63;;;15.40;93.70;;;;;;5012992;28;20072;-53
2022/05/23 04:26:22;;;;;;;6.25;4.90;;;15.40;93.70;;;;;;5012269;28;20367;-53
2022/05/23 04:28:47;;;;;;;12.82;5.25;;;15.50;93.80;;;;;;5013624;28;20445;-51
2022/05/23 04:31:13;;;;;;;6.88;5.00;;;15.50;93.80;;;;;;5012876;28;20065;-52
2022/05/23 04:36:23;;;;;;;6.50;5.20;;;15.60;93.60;;;;;;5005120;28;20018;-49
2022/05/23 04:38:48;;;;;;;7.57;5.07;;;15.60;93.70;;;;;;5012894;28;20393;-55
2022/05/23 04:41:14;;;;;;;7.00;5.22;;;15.70;93.50;;;;;;5012944;28;20046;-52
2022/05/23 04:43:40;;;;;;;8.63;4.88;;;15.70;93.40;;;;;;5012113;28;20042;-52
2022/05/23 04:46:06;;;;;;;6.65;5.10;;;15.80;93.30;;;;;;5012475;28;20030;-56
2022/05/23 04:51:15;;;;;;;6.93;4.93;;;15.70;93.20;;;;;;5012529;28;20030;-48
2022/05/23 04:53:41;;;;;;;5.47;4.80;;;15.70;93.00;;;;;;5013212;28;20500;-55
2022/05/23 04:56:07;;;;;;;9.98;4.95;;;15.70;93.40;;;;;;5011657;28;20050;-56
2022/05/23 04:58:33;;;;;;;9.85;5.15;;;15.80;93.30;;;;;;5013171;28;20085;-49
2022/05/23 05:01:00;;;;;;;5.53;4.63;;;16.00;93.30;;;;;;5012745;28;20030;-53
2022/05/23 05:03:25;;;;;;;9.05;5.75;;;16.10;93.20;;;;;;5012996;28;20099;-51
2022/05/23 05:05:52;;;;;;;9.90;5.80;;;16.20;93.10;;;;;;5011745;28;20030;-58
2022/05/23 05:08:17;;;;;;;9.35;5.88;;;16.40;92.80;;;;;;5012776;28;20037;-55
2022/05/23 05:10:44;;;;;;;7.95;5.38;;;16.50;92.80;;;;;;5012482;28;20030;-55
2022/05/23 05:13:10;;;;;;;7.70;5.80;;;16.50;92.80;;;;;;5011256;28;20167;-56
2022/05/23 05:15:36;;;;;;;9.45;6.50;;;16.50;92.70;;;;;;5012567;28;20116;-49
2022/05/23 05:18:01;;;;;;;8.95;5.88;;;16.50;92.60;;;;;;5012840;28;20053;-56
2022/05/23 05:20:29;;;;;;;7.75;5.55;;;16.50;92.80;;;;;;5013398;28;20022;-56
2022/05/23 05:22:54;;;;;;;6.82;6.13;;;16.40;92.80;;;;;;5012764;28;20112;-51
2022/05/23 05:25:20;;;;;;;7.57;5.65;;;16.40;92.80;;;;;;5012155;28;20053;-54
2022/05/23 05:27:46;;;;;;;14.30;6.72;;;16.40;93.20;;;;;;5012037;28;20169;-57
2022/05/23 05:30:15;;;;;;;9.48;6.03;;;16.30;93.20;;;;;;5012229;28;20036;-56
2022/05/23 05:32:46;;;;;;;10.90;6.10;;;16.30;93.30;;;;;;5012174;28;20034;-53
2022/05/23 05:35:38;;;;;;;7.72;5.72;;;16.30;93.30;;;;;;5009692;28;20385;-55
2022/05/23 05:38:17;;;;;;;7.35;5.50;;;16.40;93.30;;;;;;5009144;28;20123;-54
2022/05/23 05:40:48;;;;;;;7.80;5.32;;;16.40;93.40;;;;;;5011875;28;20481;-48
2022/05/23 05:43:19;;;;;;;7.32;4.85;;;16.40;93.20;;;;;;5011542;28;20034;-51
2022/05/23 05:45:55;;;;;;;9.20;5.57;;;16.50;93.30;;;;;;5010762;28;20918;-53
2022/05/23 05:48:22;;;;;;;9.88;5.53;;;16.70;93.10;;;;;;5012009;28;20080;-49
2022/05/23 05:50:49;;;;;;;9.63;5.47;;;16.80;93.10;;;;;;5012550;28;20034;-53
2022/05/23 05:53:21;;;;;;;6.57;4.88;;;16.80;93.10;;;;;;5011901;28;20441;-53
2022/05/23 05:55:48;;;;;;;12.20;6.18;;;16.90;93.00;;;;;;4993596;28;20046;-52
2022/05/23 05:58:15;;;;;;;9.52;5.78;;;16.90;93.10;;;;;;5012672;28;20038;-52
2022/05/23 06:00:40;;;;;;;9.18;5.82;;;17.00;93.20;;;;;;5012754;28;20026;-58
2022/05/23 06:03:06;;;;;;;8.38;5.57;;;17.00;93.30;;;;;;5012541;28;20030;-51
2022/05/23 06:11:23;;;;;;;9.00;6.50;;;17.10;93.20;;;;;;4993965;28;20029;-51
2022/05/23 06:13:46;;;;;;;7.03;6.20;;;17.30;93.20;;;;;;5012297;28;20038;-54
2022/05/23 06:16:12;;;;;;;8.73;6.07;;;17.30;93.50;;;;;;5011461;28;20037;-52
2022/05/23 06:18:38;;;;;;;7.07;6.13;;;17.40;93.30;;;;;;5011526;28;20129;-50
2022/05/23 06:21:06;;;;;;;8.13;5.68;;;17.40;93.30;;;;;;4995832;28;20516;-58
2022/05/23 06:23:32;;;;;;;6.15;5.55;;;17.50;93.30;;;;;;5013013;28;20027;-50
2022/05/23 06:25:58;;;;;;;9.05;5.88;;;17.50;93.30;;;;;;5011386;28;20037;-53
2022/05/23 06:28:23;;;;;;;9.15;5.43;;;17.60;93.10;;;;;;5012103;28;20054;-56
2022/05/23 06:30:49;;;;;;;11.60;5.85;;;17.70;93.10;;;;;;5012639;28;20040;-48
2022/05/23 06:33:15;;;;;;;9.70;6.38;;;17.70;92.90;;;;;;4994966;28;20030;-51
2022/05/23 06:35:40;;;;;;;9.15;5.75;;;17.70;92.90;;;;;;5005710;28;20025;-50
2022/05/23 06:38:06;;;;;;;10.30;6.13;;;17.90;92.90;;;;;;5012443;28;20034;-53
2022/05/23 06:40:32;;;;;;;15.07;6.25;;;18.00;92.10;;;;;;5013954;28;20068;-52
2022/05/23 06:42:57;;;;;;;7.88;5.22;;;18.00;92.30;;;;;;4989990;28;20034;-50
2022/05/23 06:45:23;;;;;;;11.30;6.43;;;18.10;92.20;;;;;;4996159;28;20034;-49
2022/05/23 06:47:49;;;;;;;9.98;6.32;;;18.20;92.20;;;;;;4995204;28;20528;-52
2022/05/23 06:50:15;;;;;;;9.00;5.20;;;18.30;91.90;;;;;;4995485;28;20053;-57
2022/05/23 06:52:40;;;;;;;8.15;5.43;;;18.30;91.90;;;;;;4995613;28;20037;-54
2022/05/23 06:55:07;;;;;;;13.38;5.88;;;18.30;91.80;;;;;;4995696;28;20030;-55
2022/05/23 06:57:33;;;;;;;21.42;6.45;;;18.30;92.00;;;;;;4995150;28;20469;-52
2022/05/23 06:59:58;;;;;;;18.98;5.97;;;18.30;91.80;;;;;;4995459;28;20030;-56
2022/05/23 07:02:24;;;;;;;10.75;5.28;;;18.30;91.80;;;;;;4994643;28;20038;-57
2022/05/23 07:13:02;;;;;;;;;;;18.70;90.70;;;;;;5016214;28;20026;-54
2022/05/23 07:15:35;;;;;;;15.77;4.63;;;18.70;89.80;;;;;;4996544;28;19925;-50
2022/05/23 07:18:03;;;;;;;11.27;4.45;;;18.70;89.90;;;;;;4997233;28;20053;-50
2022/05/23 07:20:30;;;;;;;7.65;4.50;;;18.70;90.10;;;;;;5014441;28;20489;-57
2022/05/23 07:22:56;;;;;;;9.15;4.18;;;18.80;89.70;;;;;;5014430;28;20034;-50
2022/05/23 07:25:21;;;;;;;10.05;4.43;;;18.70;87.90;;;;;;5013901;28;20644;-51
2022/05/23 07:27:47;;;;;;;5.45;3.90;;;18.60;89.50;;;;;;5014780;28;20033;-49
2022/05/23 07:30:12;;;;;;;10.38;4.93;;;18.70;88.80;;;;;;5014090;28;20103;-48
2022/05/23 07:32:38;;;;;;;8.70;4.38;;;18.70;89.80;;;;;;5015430;28;20084;-55
2022/05/23 07:35:04;;;;;;;8.43;4.63;;;18.70;88.90;;;;;;4996853;28;20041;-51
2022/05/23 07:37:31;;;;;;;7.72;4.00;;;18.90;88.70;;;;;;5008947;28;20041;-52
2022/05/23 07:39:56;;;;;;;10.63;4.30;;;19.00;88.40;;;;;;5013303;28;20141;-58
2022/05/23 07:42:23;;;;;;;7.38;4.05;;;19.10;88.30;;;;;;5014115;28;20037;-55
2022/05/23 07:44:49;;;;;;;16.30;4.93;;;19.10;88.50;;;;;;4997340;28;20037;-57
2022/05/23 07:47:14;;;;;;;17.02;5.38;;;19.20;88.00;;;;;;5013409;28;20030;-55
2022/05/23 07:49:40;;;;;;;9.18;4.38;;;19.20;87.50;;;;;;5014291;28;20032;-57
2022/05/23 07:52:06;;;;;;;7.00;3.60;;;19.30;87.90;;;;;;5013471;28;20481;-53
2022/05/23 08:02:44;;;;;;;8.00;3.55;;;19.50;86.90;;;;;;5013723;28;20049;-56
2022/05/23 08:05:10;;;;;;;9.63;4.40;;;19.60;87.00;;;;;;4996038;28;20559;-55
2022/05/23 08:07:35;;;;;;;12.30;4.50;;;19.70;86.70;;;;;;5012922;28;20393;-56
2022/05/23 08:10:02;;;;;;;7.68;4.22;;;19.80;86.40;;;;;;5014004;28;20057;-57
2022/05/23 08:12:29;;;;;;;6.38;3.95;;;19.80;86.10;;;;;;5013556;28;20033;-54
2022/05/23 08:14:56;;;;;;;8.07;4.25;;;19.80;86.30;;;;;;5013888;28;20026;-58
2022/05/23 08:17:22;;;;;;;5.28;4.00;;;19.90;86.00;;;;;;4993533;28;20028;-56
2022/05/23 08:19:49;;;;;;;10.18;4.95;;;19.90;86.40;;;;;;5013571;28;20122;-54
2022/05/23 08:22:15;;;;;;;9.68;4.18;;;20.00;86.50;;;;;;5013213;28;20062;-56
2022/05/23 08:24:40;;;;;;;8.40;3.92;;;20.00;86.70;;;;;;5014208;28;20033;-55
2022/05/23 08:27:06;;;;;;;6.70;3.80;;;20.20;86.70;;;;;;5007470;28;20026;-58
2022/05/23 08:29:32;;;;;;;7.10;3.70;;;20.40;85.20;;;;;;5011377;28;20026;-58
2022/05/23 08:31:59;;;;;;;8.02;3.70;;;20.40;83.80;;;;;;5013430;28;20026;-58
2022/05/23 08:34:24;;;;;;;7.40;4.22;;;20.30;83.80;;;;;;5014057;28;20029;-57
2022/05/23 08:36:52;;;;;;;5.75;3.30;;;20.20;83.90;;;;;;5003086;28;20509;-54
2022/05/23 08:39:18;;;;;;;6.95;4.15;;;20.30;84.00;;;;;;5013013;28;20030;-53
2022/05/23 08:41:45;;;;;;;5.00;3.30;;;20.40;83.10;;;;;;5013124;28;20036;-60
2022/05/23 08:44:15;;;;;;;8.15;3.63;;;20.60;82.90;;;;;;5013507;28;20496;-55
2022/05/23 08:47:03;;;;;;;5.60;3.42;;;20.60;82.80;;;;;;5012710;28;20037;-57
2022/05/23 08:50:05;;;;;;;6.88;4.05;;;20.70;82.60;;;;;;5013355;28;20098;-56
2022/05/23 08:52:43;;;;;;;9.98;3.55;;;20.60;82.00;;;;;;5012830;28;20350;-56
2022/05/23 08:55:33;;;;;;;11.13;4.10;;;20.60;82.20;;;;;;5010101;28;20018;-56
2022/05/23 08:58:19;;;;;;;8.77;3.75;;;20.50;82.60;;;;;;5008135;28;20037;-57
2022/05/23 09:00:50;;;;;;;5.90;3.53;;;20.40;82.50;;;;;;5009632;28;20218;-58
2022/05/23 09:03:31;;;;;;;8.60;3.85;;;20.50;82.20;;;;;;5007108;28;20092;-56
2022/05/23 09:06:17;;;;;;;7.47;3.33;;;20.60;81.60;;;;;;5010654;28;20044;-58
2022/05/23 09:08:54;;;;;;;4.65;3.40;;;20.70;81.70;;;;;;5007021;28;20156;-55
2022/05/23 09:11:42;;;;;;;11.90;4.05;;;20.60;82.10;;;;;;5010135;28;20080;-54
2022/05/23 09:14:11;;;;;;;6.60;3.75;;;20.80;82.80;;;;;;5011710;28;20537;-53
2022/05/23 09:16:43;;;;;;;9.45;4.68;;;20.90;82.30;;;;;;5012321;28;20026;-56
2022/05/23 09:19:32;;;;;;;7.38;4.82;;;21.00;82.30;;;;;;4992154;28;20034;-58
2022/05/23 09:22:13;;;;;;;6.95;3.97;;;21.10;81.90;;;;;;5022025;28;20053;-59
2022/05/23 09:24:45;;;;;;;6.55;4.10;;;21.10;81.30;;;;;;5019194;28;20029;-57
2022/05/23 09:27:20;;;;;;;4.82;3.80;;;21.20;81.30;;;;;;5014500;28;20029;-55
2022/05/23 09:29:51;;;;;;;7.30;3.80;;;21.10;81.10;;;;;;5011844;28;20492;-58
2022/05/23 09:32:19;;;;;;;7.35;3.83;;;21.10;81.30;;;;;;5011932;28;20785;-56
2022/05/23 09:34:58;;;;;;;5.82;3.33;;;21.10;81.40;;;;;;5009343;28;20026;-57
2022/05/23 09:37:46;;;;;;;14.18;4.18;;;21.30;81.30;;;;;;5009693;28;20053;-59
2022/05/23 09:40:30;;;;;;;8.98;3.40;;;21.40;81.10;;;;;;5008249;28;20397;-58
2022/05/23 09:49:21;;;;;;;8.55;4.97;;;21.30;81.20;;;;;;5010928;28;20030;-55
2022/05/23 09:51:57;;;;;;;9.88;4.13;;;21.10;80.80;;;;;;5008789;28;21038;-59
2022/05/23 09:54:44;;;;;;;6.63;4.05;;;21.20;80.60;;;;;;5007889;28;20521;-56
2022/05/23 09:57:32;;;;;;;13.07;4.63;;;21.40;80.50;;;;;;5009316;28;20071;-57
2022/05/23 10:00:10;;;;;;;7.75;4.00;;;21.70;80.40;;;;;;5008651;28;20026;-58
2022/05/23 10:02:39;;;;;;;7.65;4.07;;;21.80;80.00;;;;;;5011853;28;20026;-56
2022/05/23 10:05:21;;;;;;;11.10;4.70;;;22.10;79.40;;;;;;5011487;28;20523;-56
2022/05/23 10:07:49;;;;;;;6.88;4.00;;;22.20;78.80;;;;;;5010963;28;20098;-54
2022/05/23 10:10:31;;;;;;;10.27;4.07;;;22.30;78.60;;;;;;5004692;28;20046;-58
2022/05/23 10:13:25;;;;;;;9.25;4.30;;;22.40;78.30;;;;;;4992022;28;20027;-57
2022/05/23 10:15:58;;;;;;;11.23;4.40;;;22.40;78.80;;;;;;4994921;28;20022;-56
2022/05/23 10:18:33;;;;;;;12.82;4.30;;;22.30;78.70;;;;;;4995549;28;20508;-57
2022/05/23 10:21:01;;;;;;;6.95;3.80;;;22.40;78.70;;;;;;4996490;28;20117;-56
2022/05/23 10:23:30;;;;;;;7.93;3.95;;;22.60;78.50;;;;;;5004902;28;20030;-55
2022/05/23 10:26:06;;;;;;;5.82;3.75;;;22.80;78.00;;;;;;5015215;28;20030;-59
2022/05/23 10:28:59;;;;;;;7.60;3.58;;;22.80;78.30;;;;;;5018391;28;20036;-57
2022/05/23 10:31:31;;;;;;;10.48;4.18;;;22.90;77.90;;;;;;5000288;28;20030;-58
2022/05/23 10:34:08;;;;;;;5.97;3.78;;;23.00;77.80;;;;;;4989321;28;20046;-55
2022/05/23 10:36:36;;;;;;;7.28;3.72;;;22.90;77.20;;;;;;4999707;28;20022;-50
2022/05/23 10:42:10;;;;;;;6.78;3.67;;;23.10;76.90;;;;;;5013907;28;20022;-53
2022/05/23 10:44:36;;;;;;;8.75;4.05;;;23.20;76.90;;;;;;5016125;28;20376;-59
2022/05/23 10:47:13;;;;;;;6.75;3.90;;;23.30;77.00;;;;;;5015018;28;20032;-58
2022/05/23 10:50:06;;;;;;;5.65;3.80;;;23.20;77.10;;;;;;5015191;28;20030;-59
2022/05/23 10:53:19;;;;;;;9.48;4.30;;;23.30;77.40;;;;;;5015084;28;20030;-58
2022/05/23 10:56:07;;;;;;;6.80;3.70;;;23.30;77.00;;;;;;4994254;28;20029;-54
2022/05/23 10:58:53;;;;;;;8.27;4.15;;;23.40;77.60;;;;;;5015511;28;20489;-56
2022/05/23 11:01:30;;;;;;;8.05;3.95;;;23.50;77.40;;;;;;5014919;28;20433;-54
2022/05/23 11:04:01;;;;;;;9.43;4.43;;;23.40;76.60;;;;;;5014657;28;20049;-56
2022/05/23 11:06:58;;;;;;;11.68;4.22;;;23.50;77.10;;;;;;5015208;28;20129;-54
2022/05/23 11:09:29;;;;;;;7.35;4.32;;;23.60;77.90;;;;;;5015046;28;20435;-57
2022/05/23 11:12:07;;;;;;;5.90;3.58;;;23.80;77.10;;;;;;5014681;28;20061;-57
2022/05/23 11:14:33;;;;;;;5.63;3.63;;;23.70;75.80;;;;;;5015000;28;20533;-58
2022/05/23 11:17:35;;;;;;;7.82;4.00;;;23.60;76.20;;;;;;5015391;28;20120;-57
2022/05/23 11:20:19;;;;;;;8.57;4.03;;;23.40;76.00;;;;;;5014516;28;20130;-57
2022/05/23 11:22:50;;;;;;;6.07;4.03;;;23.30;76.80;;;;;;5014718;28;20037;-54
2022/05/23 11:25:27;;;;;;;6.03;3.90;;;23.40;75.90;;;;;;5013764;28;20052;-57
2022/05/23 11:34:06;;;;;;;7.72;3.95;;;23.80;74.80;;;;;;5013739;28;20022;-57
2022/05/23 11:36:44;;;;;;;10.38;4.30;;;24.00;74.50;;;;;;5013716;28;20037;-58
2022/05/23 11:39:48;;;;;;;4.68;3.60;;;24.10;74.40;;;;;;5015133;28;20041;-55
2022/05/23 11:42:30;;;;;;;5.65;3.60;;;24.10;74.10;;;;;;5015533;28;20022;-56
2022/05/23 11:45:56;;;;;;;12.35;4.03;;;24.20;73.60;;;;;;5014100;28;20034;-55
2022/05/23 11:47:48;;;;;;;5.57;3.63;;;24.30;72.80;;;;;;5014245;28;20080;-59
2022/05/23 11:50:30;;;;;;;5.78;3.60;;;24.20;71.60;;;;;;5015225;28;20528;-55
2022/05/23 11:53:21;;;;;;;4.68;3.53;;;24.10;71.90;;;;;;5013978;28;20048;-55
2022/05/23 11:55:50;;;;;;;10.95;4.30;;;24.20;71.80;;;;;;5013941;28;20081;-56
2022/05/23 11:58:30;;;;;;;6.32;3.65;;;24.30;72.00;;;;;;5013409;28;20032;-55
2022/05/23 12:01:11;;;;;;;8.27;4.13;;;24.40;71.10;;;;;;5013912;28;20030;-58
2022/05/23 12:03:51;;;;;;;5.30;3.60;;;24.40;70.60;;;;;;5013515;28;20401;-56
2022/05/23 12:06:23;;;;;;;4.72;3.20;;;24.60;70.80;;;;;;4993221;28;20026;-56
2022/05/23 12:08:57;;;;;;;6.70;4.10;;;24.80;70.10;;;;;;5001707;28;20118;-55
2022/05/23 12:11:43;;;;;;;7.68;3.88;;;24.90;69.70;;;;;;5015117;28;20026;-51
2022/05/23 12:14:12;;;;;;;13.52;4.57;;;25.00;69.90;;;;;;4994708;28;20530;-57
2022/05/23 12:16:54;;;;;;;4.53;3.70;;;25.00;70.00;;;;;;4994728;28;20033;-54
2022/05/23 12:19:28;;;;;;;5.10;3.67;;;25.20;70.30;;;;;;5014051;28;20073;-56
2022/05/23 12:22:23;;;;;;;8.88;3.75;;;25.40;70.10;;;;;;5013713;28;20077;-57
2022/05/23 12:25:09;;;;;;;5.25;3.70;;;25.50;69.50;;;;;;5013814;28;20037;-56
2022/05/23 12:27:39;;;;;;;15.05;4.50;;;25.40;68.10;;;;;;5012902;28;20038;-56
2022/05/23 12:30:41;;;;;;;11.80;4.50;;;25.30;68.40;;;;;;5013029;28;20045;-57
2022/05/23 12:33:23;;;;;;;13.60;4.03;;;25.10;68.60;;;;;;5013254;28;20037;-55
2022/05/23 12:35:59;;;;;;;6.22;3.90;;;24.80;69.30;;;;;;5011578;28;20034;-56
2022/05/23 12:38:51;;;;;;;7.40;4.38;;;24.80;69.90;;;;;;5012126;28;20026;-57
2022/05/23 12:41:40;;;;;;;7.82;3.67;;;25.00;69.90;;;;;;5013690;28;20030;-58
2022/05/23 12:44:34;;;;;;;4.80;3.50;;;25.00;69.70;;;;;;5013361;28;20022;-57
2022/05/23 12:47:04;;;;;;;10.13;4.53;;;25.10;69.90;;;;;;5008841;28;20021;-55
2022/05/23 12:49:39;;;;;;;7.65;3.90;;;25.00;69.70;;;;;;5013536;28;20113;-56
2022/05/23 12:52:26;;;;;;;8.95;4.13;;;25.00;69.90;;;;;;5012831;28;20535;-55
2022/05/23 12:55:11;;;;;;;7.15;3.60;;;25.00;70.00;;;;;;5012767;28;20038;-57
2022/05/23 12:57:58;;;;;;;5.40;3.80;;;25.00;70.20;;;;;;5011529;28;20050;-54
2022/05/23 13:00:32;;;;;;;7.22;3.95;;;25.00;70.30;;;;;;5011445;28;20773;-59
2022/05/23 13:03:15;;;;;;;7.22;3.75;;;25.00;69.90;;;;;;5013657;28;20040;-58
2022/05/23 13:05:46;;;;;;;10.27;3.50;;;25.10;69.50;;;;;;5012606;28;20026;-58
2022/05/23 13:08:25;;;;;;;4.45;3.67;;;25.20;69.60;;;;;;5012878;28;20787;-57
2022/05/23 13:11:04;;;;;;;6.35;3.75;;;25.20;69.60;;;;;;5012891;28;20543;-54
2022/05/23 13:13:36;;;;;;;5.45;3.63;;;25.20;69.10;;;;;;5012986;28;20036;-55
2022/05/23 13:16:22;;;;;;;6.70;3.70;;;25.10;68.90;;;;;;5012859;28;20034;-57
2022/05/23 13:27:06;;;;;;;7.60;3.63;;;24.90;67.50;;;;;;5011925;28;20106;-52
2022/05/23 13:29:34;;;;;;;7.15;3.72;;;24.90;67.10;;;;;;5012758;28;20030;-53
2022/05/23 13:32:03;;;;;;;8.45;3.83;;;24.70;67.40;;;;;;5012682;28;20490;-52
2022/05/23 13:34:40;;;;;;;15.77;4.85;;;24.60;67.70;;;;;;5011964;28;20029;-58
2022/05/23 13:37:07;;;;;;;10.15;4.22;;;24.50;67.90;;;;;;5011881;28;20022;-56
2022/05/23 13:39:42;;;;;;;6.35;3.70;;;24.60;68.30;;;;;;5012155;28;20104;-56
2022/05/23 13:42:25;;;;;;;8.40;3.58;;;24.60;68.50;;;;;;5012349;28;20108;-56
2022/05/23 13:44:51;;;;;;;9.40;4.22;;;24.60;68.00;;;;;;5012323;28;20037;-57
2022/05/23 13:47:22;;;;;;;15.20;4.60;;;24.60;68.30;;;;;;5013202;28;20041;-53
2022/05/23 13:50:03;;;;;;;8.70;3.80;;;24.80;68.30;;;;;;5012249;28;20026;-58
2022/05/23 13:52:51;;;;;;;12.68;4.47;;;24.80;68.70;;;;;;5016706;28;20030;-56
2022/05/23 13:55:25;;;;;;;8.68;4.70;;;24.70;68.70;;;;;;5015741;28;20037;-55
2022/05/23 13:57:59;;;;;;;12.10;4.18;;;24.90;68.70;;;;;;5015818;28;20033;-53
2022/05/23 14:00:32;;;;;;;6.97;3.83;;;24.90;69.30;;;;;;5016016;28;20037;-56
2022/05/23 14:03:04;;;;;;;12.73;4.53;;;24.80;70.00;;;;;;4998976;28;20394;-59
2022/05/23 14:05:33;;;;;;;7.55;4.07;;;24.70;70.10;;;;;;5017200;28;20038;-57
2022/05/23 14:08:02;;;;;;;9.32;4.22;;;24.60;69.60;;;;;;5018214;28;20096;-56
2022/05/23 14:10:28;;;;;;;6.28;4.10;;;24.40;69.10;;;;;;4999557;28;20030;-58
2022/05/23 14:12:56;;;;;;;12.63;5.38;;;24.20;68.80;;;;;;5017240;28;20033;-58
2022/05/23 14:15:25;;;;;;;10.70;4.53;;;24.00;69.10;;;;;;5015536;28;20038;-55